首页
METAR-TAF:

METAR-TAF

机场 :

通孔廷国际机场

德古斯加巴, 洪都拉斯

纬度: 14-03N, 经度: 087-13W, 海拔: 994米

当前天气观测

该预报发布于57分钟前的00:00 UTC
静风
温度 21°C
湿度 88%
气压 1018 hPa
能见度10公里或以上
少量云层高于2800英尺
少量云层高于3000英尺, 积雨云.
多云层高于8000英尺

METAR: MHTG 210000Z 00000KT 9999 FEW028 FEW030CB BKN080 21/19 Q1018 A3006 NOSIG

时间: 18:57 (00:57 UTC)

预报

该预报发布于2小时和57分钟前的22:00 UTC
预报有效从21日的 00点(UTC)到 21日的 24点(UTC)
风速4节,风向
能見度: 7000
散云层高于2600英尺
少量云层高于2800英尺, 积雨云.
多云层高于8000英尺
雷暴, 小雨
成为
从 21日的 08点(UTC)到 21日的 10点(UTC)
风速节,风向
能見度: 8000
少量云层高于800英尺
散云层高于2400英尺
多云层高于8000英尺
成为
从 21日的 13点(UTC)到 21日的 15点(UTC)
风速4节,风向南转西南
能见度10公里或以上
散云层高于2800英尺, 塔状积云.
散云层高于8000英尺
成为
从 21日的 20点(UTC)到 21日的 22点(UTC)
风速5节,风向南转南东
能見度: 7000
散云层高于2800英尺, 积雨云.
多云层高于7000英尺
雷暴, 小雨

TAF: MHTG 202200Z 2100/2124 18004KT 7000 -TSRA SCT026 FEW028CB BKN080 TX29/2119Z TN18/2112 BECMG 2108/2110 00000KT 8000 NSW FEW008 SCT024 BKN080 BECMG 2113/2115 20004KT 9999 SCT028TCU SCT080 BECMG 2120/2122 15005KT 7000 -TSRA SCT028CB BKN070

超过4000个机场的气象观测和天气预报(METAR&TAF报告)。

可查询的气象台以黄色和红色小点在地图上表示。

将鼠标移到小点上方,可查看气象台名称。

然后点击查看天气观测和预报。

如需切换地图:点击带黑十字的绿色按钮放大地图;点击带横线的绿色按钮缩小地图;或者点击绿色箭头查看邻近地区的地图。


METAR-TAF: